sensor_id;sensor_type;location;lat;lon;timestamp;P1;durP1;ratioP1;P2;durP2;ratioP2
83814;SDS011;73829;53.826;-3.034;2024-03-22T00:02:05;18.90;;;7.50;;
83814;SDS011;73829;53.826;-3.034;2024-03-22T00:04:37;21.10;;;7.10;;
83814;SDS011;73829;53.826;-3.034;2024-03-22T00:07:07;18.10;;;7.00;;
83814;SDS011;73829;53.826;-3.034;2024-03-22T00:09:38;18.50;;;6.60;;
83814;SDS011;73829;53.826;-3.034;2024-03-22T00:12:08;19.70;;;7.10;;
83814;SDS011;73829;53.826;-3.034;2024-03-22T00:14:39;17.60;;;5.60;;
83814;SDS011;73829;53.826;-3.034;2024-03-22T00:19:38;15.70;;;5.50;;
83814;SDS011;73829;53.826;-3.034;2024-03-22T00:22:09;14.20;;;4.80;;
83814;SDS011;73829;53.826;-3.034;2024-03-22T00:27:08;15.10;;;5.10;;
83814;SDS011;73829;53.826;-3.034;2024-03-22T00:29:40;17.50;;;6.00;;
83814;SDS011;73829;53.826;-3.034;2024-03-22T00:32:10;16.40;;;6.00;;
83814;SDS011;73829;53.826;-3.034;2024-03-22T00:34:40;13.70;;;4.90;;
83814;SDS011;73829;53.826;-3.034;2024-03-22T00:37:11;16.60;;;6.10;;
83814;SDS011;73829;53.826;-3.034;2024-03-22T00:39:41;14.60;;;5.60;;
83814;SDS011;73829;53.826;-3.034;2024-03-22T00:42:12;14.60;;;5.40;;
83814;SDS011;73829;53.826;-3.034;2024-03-22T00:44:43;16.10;;;5.90;;
83814;SDS011;73829;53.826;-3.034;2024-03-22T00:47:13;17.40;;;5.70;;
83814;SDS011;73829;53.826;-3.034;2024-03-22T00:49:43;15.70;;;5.10;;
83814;SDS011;73829;53.826;-3.034;2024-03-22T00:52:14;14.90;;;5.50;;
83814;SDS011;73829;53.826;-3.034;2024-03-22T00:54:44;12.00;;;4.10;;
83814;SDS011;73829;53.826;-3.034;2024-03-22T00:57:14;13.60;;;4.20;;
83814;SDS011;73829;53.826;-3.034;2024-03-22T00:59:45;13.70;;;4.60;;
83814;SDS011;73829;53.826;-3.034;2024-03-22T01:02:15;12.30;;;4.20;;
83814;SDS011;73829;53.826;-3.034;2024-03-22T01:04:45;13.30;;;4.50;;
83814;SDS011;73829;53.826;-3.034;2024-03-22T01:07:16;13.80;;;4.60;;
83814;SDS011;73829;53.826;-3.034;2024-03-22T01:09:46;12.20;;;5.00;;
83814;SDS011;73829;53.826;-3.034;2024-03-22T01:12:16;12.00;;;4.50;;
83814;SDS011;73829;53.826;-3.034;2024-03-22T01:14:47;13.10;;;4.30;;
83814;SDS011;73829;53.826;-3.034;2024-03-22T01:17:18;11.90;;;3.80;;
83814;SDS011;73829;53.826;-3.034;2024-03-22T01:19:48;12.00;;;4.50;;
83814;SDS011;73829;53.826;-3.034;2024-03-22T01:22:19;10.80;;;4.10;;
83814;SDS011;73829;53.826;-3.034;2024-03-22T01:24:51;11.20;;;4.10;;
83814;SDS011;73829;53.826;-3.034;2024-03-22T01:27:21;11.30;;;3.90;;
83814;SDS011;73829;53.826;-3.034;2024-03-22T01:29:51;8.30;;;3.00;;
83814;SDS011;73829;53.826;-3.034;2024-03-22T01:32:24;9.50;;;3.60;;
83814;SDS011;73829;53.826;-3.034;2024-03-22T01:34:55;10.80;;;3.50;;
83814;SDS011;73829;53.826;-3.034;2024-03-22T01:37:25;11.40;;;3.80;;
83814;SDS011;73829;53.826;-3.034;2024-03-22T01:39:56;9.90;;;3.60;;
83814;SDS011;73829;53.826;-3.034;2024-03-22T01:42:26;9.50;;;3.40;;
83814;SDS011;73829;53.826;-3.034;2024-03-22T01:44:56;12.20;;;4.30;;
83814;SDS011;73829;53.826;-3.034;2024-03-22T01:47:27;11.60;;;4.30;;
83814;SDS011;73829;53.826;-3.034;2024-03-22T01:49:57;9.80;;;3.60;;
83814;SDS011;73829;53.826;-3.034;2024-03-22T01:52:29;9.70;;;4.20;;
83814;SDS011;73829;53.826;-3.034;2024-03-22T01:54:59;10.20;;;3.50;;
83814;SDS011;73829;53.826;-3.034;2024-03-22T01:57:32;9.30;;;3.70;;
83814;SDS011;73829;53.826;-3.034;2024-03-22T02:00:05;7.60;;;3.00;;
83814;SDS011;73829;53.826;-3.034;2024-03-22T02:02:37;9.70;;;3.70;;
83814;SDS011;73829;53.826;-3.034;2024-03-22T02:05:13;8.10;;;2.50;;
83814;SDS011;73829;53.826;-3.034;2024-03-22T02:07:46;7.40;;;2.50;;
83814;SDS011;73829;53.826;-3.034;2024-03-22T02:10:17;8.80;;;2.80;;
83814;SDS011;73829;53.826;-3.034;2024-03-22T02:12:47;6.40;;;2.50;;
83814;SDS011;73829;53.826;-3.034;2024-03-22T02:15:18;8.80;;;3.10;;
83814;SDS011;73829;53.826;-3.034;2024-03-22T02:17:48;9.50;;;3.10;;
83814;SDS011;73829;53.826;-3.034;2024-03-22T02:20:18;8.70;;;3.00;;
83814;SDS011;73829;53.826;-3.034;2024-03-22T02:22:49;9.10;;;3.20;;
83814;SDS011;73829;53.826;-3.034;2024-03-22T02:25:19;7.80;;;3.10;;
83814;SDS011;73829;53.826;-3.034;2024-03-22T02:27:49;8.10;;;2.80;;
83814;SDS011;73829;53.826;-3.034;2024-03-22T02:30:20;8.00;;;2.90;;
83814;SDS011;73829;53.826;-3.034;2024-03-22T02:32:50;6.60;;;2.90;;
83814;SDS011;73829;53.826;-3.034;2024-03-22T02:35:21;9.70;;;3.30;;
83814;SDS011;73829;53.826;-3.034;2024-03-22T02:37:51;10.10;;;3.20;;
83814;SDS011;73829;53.826;-3.034;2024-03-22T02:40:22;7.10;;;2.80;;
83814;SDS011;73829;53.826;-3.034;2024-03-22T02:42:52;9.50;;;3.10;;
83814;SDS011;73829;53.826;-3.034;2024-03-22T02:45:22;6.90;;;2.80;;
83814;SDS011;73829;53.826;-3.034;2024-03-22T02:47:53;8.80;;;3.10;;
83814;SDS011;73829;53.826;-3.034;2024-03-22T02:50:24;8.20;;;2.60;;
83814;SDS011;73829;53.826;-3.034;2024-03-22T02:52:54;9.80;;;2.90;;
83814;SDS011;73829;53.826;-3.034;2024-03-22T02:55:24;7.80;;;2.40;;
83814;SDS011;73829;53.826;-3.034;2024-03-22T02:57:55;7.80;;;3.00;;
83814;SDS011;73829;53.826;-3.034;2024-03-22T03:00:26;7.40;;;2.90;;
83814;SDS011;73829;53.826;-3.034;2024-03-22T03:02:56;8.80;;;2.70;;
83814;SDS011;73829;53.826;-3.034;2024-03-22T03:05:27;9.50;;;2.90;;
83814;SDS011;73829;53.826;-3.034;2024-03-22T03:07:57;9.60;;;3.10;;
83814;SDS011;73829;53.826;-3.034;2024-03-22T03:10:28;9.90;;;3.00;;
83814;SDS011;73829;53.826;-3.034;2024-03-22T03:12:58;8.00;;;2.70;;
83814;SDS011;73829;53.826;-3.034;2024-03-22T03:15:29;9.30;;;3.10;;
83814;SDS011;73829;53.826;-3.034;2024-03-22T03:17:59;8.40;;;2.30;;
83814;SDS011;73829;53.826;-3.034;2024-03-22T03:20:29;5.60;;;1.90;;
83814;SDS011;73829;53.826;-3.034;2024-03-22T03:22:59;6.60;;;2.30;;
83814;SDS011;73829;53.826;-3.034;2024-03-22T03:25:30;6.70;;;2.40;;
83814;SDS011;73829;53.826;-3.034;2024-03-22T03:28:00;7.30;;;2.40;;
83814;SDS011;73829;53.826;-3.034;2024-03-22T03:30:31;8.00;;;2.60;;
83814;SDS011;73829;53.826;-3.034;2024-03-22T03:33:01;7.20;;;2.20;;
83814;SDS011;73829;53.826;-3.034;2024-03-22T03:35:32;7.80;;;3.00;;
83814;SDS011;73829;53.826;-3.034;2024-03-22T03:38:02;8.20;;;2.40;;
83814;SDS011;73829;53.826;-3.034;2024-03-22T03:43:03;8.50;;;2.60;;
83814;SDS011;73829;53.826;-3.034;2024-03-22T03:45:35;9.90;;;2.50;;
83814;SDS011;73829;53.826;-3.034;2024-03-22T03:48:06;8.20;;;2.60;;
83814;SDS011;73829;53.826;-3.034;2024-03-22T03:50:36;6.80;;;2.40;;
83814;SDS011;73829;53.826;-3.034;2024-03-22T03:53:07;6.50;;;2.30;;
83814;SDS011;73829;53.826;-3.034;2024-03-22T03:55:40;9.80;;;2.70;;
83814;SDS011;73829;53.826;-3.034;2024-03-22T03:58:11;7.60;;;2.50;;
83814;SDS011;73829;53.826;-3.034;2024-03-22T04:00:41;5.80;;;2.10;;
83814;SDS011;73829;53.826;-3.034;2024-03-22T04:03:17;6.30;;;1.60;;
83814;SDS011;73829;53.826;-3.034;2024-03-22T04:05:55;5.70;;;1.80;;
83814;SDS011;73829;53.826;-3.034;2024-03-22T04:08:26;7.60;;;2.00;;
83814;SDS011;73829;53.826;-3.034;2024-03-22T04:10:58;7.30;;;2.20;;
83814;SDS011;73829;53.826;-3.034;2024-03-22T04:13:28;7.00;;;2.30;;
83814;SDS011;73829;53.826;-3.034;2024-03-22T04:15:59;5.90;;;1.90;;
83814;SDS011;73829;53.826;-3.034;2024-03-22T04:20:59;6.10;;;2.10;;
83814;SDS011;73829;53.826;-3.034;2024-03-22T04:23:30;8.10;;;2.30;;
83814;SDS011;73829;53.826;-3.034;2024-03-22T04:26:01;8.30;;;2.70;;
83814;SDS011;73829;53.826;-3.034;2024-03-22T04:31:01;6.70;;;2.10;;
83814;SDS011;73829;53.826;-3.034;2024-03-22T04:33:33;7.70;;;2.10;;
83814;SDS011;73829;53.826;-3.034;2024-03-22T04:36:05;7.80;;;2.70;;
83814;SDS011;73829;53.826;-3.034;2024-03-22T04:38:37;6.20;;;1.90;;
83814;SDS011;73829;53.826;-3.034;2024-03-22T04:41:07;7.80;;;2.00;;
83814;SDS011;73829;53.826;-3.034;2024-03-22T04:43:38;7.90;;;2.10;;
83814;SDS011;73829;53.826;-3.034;2024-03-22T04:46:08;6.50;;;2.00;;
83814;SDS011;73829;53.826;-3.034;2024-03-22T04:48:40;5.90;;;1.70;;
83814;SDS011;73829;53.826;-3.034;2024-03-22T04:51:10;8.70;;;2.10;;
83814;SDS011;73829;53.826;-3.034;2024-03-22T04:53:41;7.40;;;2.30;;
83814;SDS011;73829;53.826;-3.034;2024-03-22T04:56:11;5.90;;;1.70;;
83814;SDS011;73829;53.826;-3.034;2024-03-22T04:58:42;6.80;;;2.20;;
83814;SDS011;73829;53.826;-3.034;2024-03-22T05:01:13;6.90;;;1.90;;
83814;SDS011;73829;53.826;-3.034;2024-03-22T05:03:43;5.70;;;1.90;;
83814;SDS011;73829;53.826;-3.034;2024-03-22T05:06:15;7.00;;;2.20;;
83814;SDS011;73829;53.826;-3.034;2024-03-22T05:08:46;7.70;;;2.00;;
83814;SDS011;73829;53.826;-3.034;2024-03-22T05:11:17;8.30;;;2.60;;
83814;SDS011;73829;53.826;-3.034;2024-03-22T05:13:47;9.10;;;2.50;;
83814;SDS011;73829;53.826;-3.034;2024-03-22T05:16:18;7.50;;;2.20;;
83814;SDS011;73829;53.826;-3.034;2024-03-22T05:18:48;9.40;;;2.20;;
83814;SDS011;73829;53.826;-3.034;2024-03-22T05:21:19;7.00;;;2.00;;
83814;SDS011;73829;53.826;-3.034;2024-03-22T05:23:50;8.20;;;2.10;;
83814;SDS011;73829;53.826;-3.034;2024-03-22T05:26:20;8.10;;;2.20;;
83814;SDS011;73829;53.826;-3.034;2024-03-22T05:28:51;7.10;;;2.10;;
83814;SDS011;73829;53.826;-3.034;2024-03-22T05:31:21;7.50;;;1.80;;
83814;SDS011;73829;53.826;-3.034;2024-03-22T05:33:52;7.20;;;1.60;;
83814;SDS011;73829;53.826;-3.034;2024-03-22T05:36:22;5.90;;;1.60;;
83814;SDS011;73829;53.826;-3.034;2024-03-22T05:41:23;5.70;;;1.50;;
83814;SDS011;73829;53.826;-3.034;2024-03-22T05:43:53;7.50;;;2.00;;
83814;SDS011;73829;53.826;-3.034;2024-03-22T05:46:24;8.70;;;2.20;;
83814;SDS011;73829;53.826;-3.034;2024-03-22T05:48:54;8.20;;;2.30;;
83814;SDS011;73829;53.826;-3.034;2024-03-22T05:51:26;7.00;;;2.00;;
83814;SDS011;73829;53.826;-3.034;2024-03-22T05:53:57;7.90;;;2.00;;
83814;SDS011;73829;53.826;-3.034;2024-03-22T05:56:28;5.90;;;1.90;;
83814;SDS011;73829;53.826;-3.034;2024-03-22T05:58:58;8.60;;;2.10;;
83814;SDS011;73829;53.826;-3.034;2024-03-22T06:01:29;6.20;;;2.00;;
83814;SDS011;73829;53.826;-3.034;2024-03-22T06:04:00;8.80;;;2.20;;
83814;SDS011;73829;53.826;-3.034;2024-03-22T06:06:31;7.40;;;2.20;;
83814;SDS011;73829;53.826;-3.034;2024-03-22T06:09:02;9.30;;;2.10;;
83814;SDS011;73829;53.826;-3.034;2024-03-22T06:11:36;7.80;;;2.00;;
83814;SDS011;73829;53.826;-3.034;2024-03-22T06:14:11;6.70;;;2.00;;
83814;SDS011;73829;53.826;-3.034;2024-03-22T06:16:42;5.90;;;1.80;;
83814;SDS011;73829;53.826;-3.034;2024-03-22T06:19:12;7.40;;;1.90;;
83814;SDS011;73829;53.826;-3.034;2024-03-22T06:21:43;8.30;;;1.80;;
83814;SDS011;73829;53.826;-3.034;2024-03-22T06:24:13;8.10;;;2.40;;
83814;SDS011;73829;53.826;-3.034;2024-03-22T06:26:44;6.30;;;1.70;;
83814;SDS011;73829;53.826;-3.034;2024-03-22T06:29:16;6.60;;;1.80;;
83814;SDS011;73829;53.826;-3.034;2024-03-22T06:31:47;7.80;;;2.20;;
83814;SDS011;73829;53.826;-3.034;2024-03-22T06:34:20;8.00;;;2.00;;
83814;SDS011;73829;53.826;-3.034;2024-03-22T06:36:50;7.00;;;2.10;;
83814;SDS011;73829;53.826;-3.034;2024-03-22T06:39:21;6.90;;;2.20;;
83814;SDS011;73829;53.826;-3.034;2024-03-22T06:41:51;7.40;;;1.80;;
83814;SDS011;73829;53.826;-3.034;2024-03-22T06:44:22;6.90;;;2.20;;
83814;SDS011;73829;53.826;-3.034;2024-03-22T06:46:52;7.50;;;1.80;;
83814;SDS011;73829;53.826;-3.034;2024-03-22T06:49:23;8.70;;;2.70;;
83814;SDS011;73829;53.826;-3.034;2024-03-22T06:51:54;7.10;;;1.80;;
83814;SDS011;73829;53.826;-3.034;2024-03-22T06:54:24;8.80;;;2.10;;
83814;SDS011;73829;53.826;-3.034;2024-03-22T06:56:55;8.80;;;2.20;;
83814;SDS011;73829;53.826;-3.034;2024-03-22T06:59:25;7.60;;;2.10;;
83814;SDS011;73829;53.826;-3.034;2024-03-22T07:01:56;7.30;;;1.70;;
83814;SDS011;73829;53.826;-3.034;2024-03-22T07:04:26;5.90;;;1.30;;
83814;SDS011;73829;53.826;-3.034;2024-03-22T07:06:57;5.40;;;1.40;;
83814;SDS011;73829;53.826;-3.034;2024-03-22T07:09:27;6.10;;;1.40;;
83814;SDS011;73829;53.826;-3.034;2024-03-22T07:11:58;6.40;;;1.70;;
83814;SDS011;73829;53.826;-3.034;2024-03-22T07:14:29;6.80;;;1.70;;
83814;SDS011;73829;53.826;-3.034;2024-03-22T07:16:59;5.90;;;1.60;;
83814;SDS011;73829;53.826;-3.034;2024-03-22T07:19:30;8.70;;;1.80;;
83814;SDS011;73829;53.826;-3.034;2024-03-22T07:22:02;8.10;;;2.00;;
83814;SDS011;73829;53.826;-3.034;2024-03-22T07:24:33;7.90;;;2.00;;
83814;SDS011;73829;53.826;-3.034;2024-03-22T07:27:04;7.40;;;1.80;;
83814;SDS011;73829;53.826;-3.034;2024-03-22T07:29:34;6.00;;;1.60;;
83814;SDS011;73829;53.826;-3.034;2024-03-22T07:34:34;5.50;;;1.70;;
83814;SDS011;73829;53.826;-3.034;2024-03-22T07:37:05;8.70;;;2.10;;
83814;SDS011;73829;53.826;-3.034;2024-03-22T07:39:35;6.90;;;1.90;;
83814;SDS011;73829;53.826;-3.034;2024-03-22T07:42:06;7.50;;;1.70;;
83814;SDS011;73829;53.826;-3.034;2024-03-22T07:44:37;7.70;;;1.70;;
83814;SDS011;73829;53.826;-3.034;2024-03-22T07:47:07;9.50;;;2.00;;
83814;SDS011;73829;53.826;-3.034;2024-03-22T07:49:38;6.80;;;1.70;;
83814;SDS011;73829;53.826;-3.034;2024-03-22T07:52:09;7.30;;;1.80;;
83814;SDS011;73829;53.826;-3.034;2024-03-22T07:54:39;6.50;;;1.50;;
83814;SDS011;73829;53.826;-3.034;2024-03-22T07:57:10;6.70;;;1.50;;
83814;SDS011;73829;53.826;-3.034;2024-03-22T07:59:41;5.70;;;1.30;;
83814;SDS011;73829;53.826;-3.034;2024-03-22T08:02:11;6.40;;;1.50;;
83814;SDS011;73829;53.826;-3.034;2024-03-22T08:04:42;5.80;;;1.70;;
83814;SDS011;73829;53.826;-3.034;2024-03-22T08:07:13;6.70;;;1.90;;
83814;SDS011;73829;53.826;-3.034;2024-03-22T08:09:43;6.80;;;1.60;;
83814;SDS011;73829;53.826;-3.034;2024-03-22T08:14:43;8.70;;;1.90;;
83814;SDS011;73829;53.826;-3.034;2024-03-22T08:17:14;9.00;;;2.00;;
83814;SDS011;73829;53.826;-3.034;2024-03-22T08:19:44;9.40;;;2.20;;
83814;SDS011;73829;53.826;-3.034;2024-03-22T08:22:15;10.60;;;2.10;;
83814;SDS011;73829;53.826;-3.034;2024-03-22T08:24:46;10.40;;;2.10;;
83814;SDS011;73829;53.826;-3.034;2024-03-22T08:29:45;10.20;;;1.70;;
83814;SDS011;73829;53.826;-3.034;2024-03-22T08:32:16;7.70;;;1.80;;
83814;SDS011;73829;53.826;-3.034;2024-03-22T08:34:46;9.10;;;1.90;;
83814;SDS011;73829;53.826;-3.034;2024-03-22T08:37:17;9.70;;;2.20;;
83814;SDS011;73829;53.826;-3.034;2024-03-22T08:39:48;9.10;;;2.00;;
83814;SDS011;73829;53.826;-3.034;2024-03-22T08:42:18;9.40;;;1.60;;
83814;SDS011;73829;53.826;-3.034;2024-03-22T08:44:49;8.50;;;1.70;;
83814;SDS011;73829;53.826;-3.034;2024-03-22T08:49:49;12.40;;;1.90;;
83814;SDS011;73829;53.826;-3.034;2024-03-22T08:52:19;9.60;;;1.90;;
83814;SDS011;73829;53.826;-3.034;2024-03-22T08:54:52;8.10;;;1.70;;
83814;SDS011;73829;53.826;-3.034;2024-03-22T08:57:22;8.90;;;2.10;;
83814;SDS011;73829;53.826;-3.034;2024-03-22T08:59:53;8.90;;;2.20;;
83814;SDS011;73829;53.826;-3.034;2024-03-22T09:02:24;10.50;;;2.00;;
83814;SDS011;73829;53.826;-3.034;2024-03-22T09:04:54;6.50;;;1.90;;
83814;SDS011;73829;53.826;-3.034;2024-03-22T09:07:25;8.10;;;1.70;;
83814;SDS011;73829;53.826;-3.034;2024-03-22T09:09:56;8.60;;;2.10;;
83814;SDS011;73829;53.826;-3.034;2024-03-22T09:12:26;12.90;;;2.50;;
83814;SDS011;73829;53.826;-3.034;2024-03-22T09:14:57;7.70;;;1.70;;
83814;SDS011;73829;53.826;-3.034;2024-03-22T09:17:28;9.00;;;1.90;;
83814;SDS011;73829;53.826;-3.034;2024-03-22T09:19:58;7.80;;;1.60;;
83814;SDS011;73829;53.826;-3.034;2024-03-22T09:22:31;8.80;;;1.60;;
83814;SDS011;73829;53.826;-3.034;2024-03-22T09:25:03;10.00;;;2.10;;
83814;SDS011;73829;53.826;-3.034;2024-03-22T09:27:34;7.70;;;1.40;;
83814;SDS011;73829;53.826;-3.034;2024-03-22T09:30:06;7.50;;;2.10;;
83814;SDS011;73829;53.826;-3.034;2024-03-22T09:32:37;9.90;;;1.70;;
83814;SDS011;73829;53.826;-3.034;2024-03-22T09:35:09;6.60;;;1.50;;
83814;SDS011;73829;53.826;-3.034;2024-03-22T09:37:42;6.30;;;1.10;;
83814;SDS011;73829;53.826;-3.034;2024-03-22T09:40:12;5.40;;;1.40;;
83814;SDS011;73829;53.826;-3.034;2024-03-22T09:42:43;6.90;;;1.30;;
83814;SDS011;73829;53.826;-3.034;2024-03-22T09:45:17;7.40;;;1.60;;
83814;SDS011;73829;53.826;-3.034;2024-03-22T09:47:49;6.50;;;1.20;;
83814;SDS011;73829;53.826;-3.034;2024-03-22T09:50:23;6.30;;;1.70;;
83814;SDS011;73829;53.826;-3.034;2024-03-22T09:52:54;7.10;;;1.50;;
83814;SDS011;73829;53.826;-3.034;2024-03-22T09:55:26;7.70;;;1.70;;
83814;SDS011;73829;53.826;-3.034;2024-03-22T09:57:57;8.30;;;1.30;;
83814;SDS011;73829;53.826;-3.034;2024-03-22T10:00:28;6.10;;;1.80;;
83814;SDS011;73829;53.826;-3.034;2024-03-22T10:02:59;5.20;;;1.40;;
83814;SDS011;73829;53.826;-3.034;2024-03-22T10:05:32;7.50;;;1.50;;
83814;SDS011;73829;53.826;-3.034;2024-03-22T10:08:03;7.00;;;1.50;;
83814;SDS011;73829;53.826;-3.034;2024-03-22T10:10:34;7.10;;;1.50;;
83814;SDS011;73829;53.826;-3.034;2024-03-22T10:13:05;6.80;;;1.50;;
83814;SDS011;73829;53.826;-3.034;2024-03-22T10:18:05;7.20;;;1.50;;
83814;SDS011;73829;53.826;-3.034;2024-03-22T10:20:36;7.20;;;1.70;;
83814;SDS011;73829;53.826;-3.034;2024-03-22T10:23:07;6.10;;;1.60;;
83814;SDS011;73829;53.826;-3.034;2024-03-22T10:25:38;6.20;;;1.20;;
83814;SDS011;73829;53.826;-3.034;2024-03-22T10:28:09;4.50;;;1.30;;
83814;SDS011;73829;53.826;-3.034;2024-03-22T10:30:41;4.80;;;1.40;;
83814;SDS011;73829;53.826;-3.034;2024-03-22T10:33:13;5.90;;;1.40;;
83814;SDS011;73829;53.826;-3.034;2024-03-22T10:35:45;5.00;;;1.10;;
83814;SDS011;73829;53.826;-3.034;2024-03-22T10:38:16;5.30;;;1.20;;
83814;SDS011;73829;53.826;-3.034;2024-03-22T10:40:47;5.60;;;1.10;;
83814;SDS011;73829;53.826;-3.034;2024-03-22T10:43:21;4.30;;;1.10;;
83814;SDS011;73829;53.826;-3.034;2024-03-22T10:45:52;5.60;;;1.30;;
83814;SDS011;73829;53.826;-3.034;2024-03-22T10:48:31;6.30;;;1.30;;
83814;SDS011;73829;53.826;-3.034;2024-03-22T10:51:02;8.20;;;1.50;;
83814;SDS011;73829;53.826;-3.034;2024-03-22T10:53:34;7.20;;;1.30;;
83814;SDS011;73829;53.826;-3.034;2024-03-22T10:56:06;6.50;;;1.60;;
83814;SDS011;73829;53.826;-3.034;2024-03-22T10:58:40;5.70;;;1.30;;
83814;SDS011;73829;53.826;-3.034;2024-03-22T11:01:22;5.90;;;1.10;;
83814;SDS011;73829;53.826;-3.034;2024-03-22T11:04:03;5.70;;;1.40;;
83814;SDS011;73829;53.826;-3.034;2024-03-22T11:06:37;6.50;;;1.20;;
83814;SDS011;73829;53.826;-3.034;2024-03-22T11:09:07;6.70;;;1.30;;
83814;SDS011;73829;53.826;-3.034;2024-03-22T11:11:41;4.80;;;1.30;;
83814;SDS011;73829;53.826;-3.034;2024-03-22T11:14:11;7.80;;;1.30;;
83814;SDS011;73829;53.826;-3.034;2024-03-22T11:16:43;5.00;;;1.00;;
83814;SDS011;73829;53.826;-3.034;2024-03-22T11:19:14;4.80;;;1.10;;
83814;SDS011;73829;53.826;-3.034;2024-03-22T11:21:45;5.20;;;1.10;;
83814;SDS011;73829;53.826;-3.034;2024-03-22T11:26:45;8.30;;;1.60;;
83814;SDS011;73829;53.826;-3.034;2024-03-22T11:29:15;7.90;;;1.60;;
83814;SDS011;73829;53.826;-3.034;2024-03-22T11:31:46;5.90;;;1.40;;
83814;SDS011;73829;53.826;-3.034;2024-03-22T11:34:17;5.20;;;1.00;;
83814;SDS011;73829;53.826;-3.034;2024-03-22T11:36:48;6.60;;;1.50;;
83814;SDS011;73829;53.826;-3.034;2024-03-22T11:39:19;6.70;;;1.50;;
83814;SDS011;73829;53.826;-3.034;2024-03-22T11:41:50;7.00;;;1.60;;
83814;SDS011;73829;53.826;-3.034;2024-03-22T11:44:21;8.20;;;1.60;;
83814;SDS011;73829;53.826;-3.034;2024-03-22T11:46:53;7.00;;;1.50;;
83814;SDS011;73829;53.826;-3.034;2024-03-22T11:49:25;8.10;;;1.90;;
83814;SDS011;73829;53.826;-3.034;2024-03-22T11:51:56;7.00;;;1.40;;
83814;SDS011;73829;53.826;-3.034;2024-03-22T11:54:27;6.60;;;1.80;;
83814;SDS011;73829;53.826;-3.034;2024-03-22T11:56:58;9.90;;;2.10;;
83814;SDS011;73829;53.826;-3.034;2024-03-22T11:59:30;9.80;;;1.90;;
83814;SDS011;73829;53.826;-3.034;2024-03-22T12:02:01;8.10;;;1.50;;
83814;SDS011;73829;53.826;-3.034;2024-03-22T12:04:33;6.40;;;1.20;;
83814;SDS011;73829;53.826;-3.034;2024-03-22T12:07:04;6.10;;;1.30;;
83814;SDS011;73829;53.826;-3.034;2024-03-22T12:09:37;7.70;;;1.50;;
83814;SDS011;73829;53.826;-3.034;2024-03-22T12:12:08;6.90;;;1.50;;
83814;SDS011;73829;53.826;-3.034;2024-03-22T12:14:40;8.20;;;2.20;;
83814;SDS011;73829;53.826;-3.034;2024-03-22T12:17:11;9.20;;;2.10;;
83814;SDS011;73829;53.826;-3.034;2024-03-22T12:19:41;7.30;;;2.00;;
83814;SDS011;73829;53.826;-3.034;2024-03-22T12:22:15;7.60;;;2.30;;
83814;SDS011;73829;53.826;-3.034;2024-03-22T12:24:45;8.70;;;3.10;;
83814;SDS011;73829;53.826;-3.034;2024-03-22T12:27:16;10.70;;;2.80;;
83814;SDS011;73829;53.826;-3.034;2024-03-22T12:29:50;7.60;;;3.30;;
83814;SDS011;73829;53.826;-3.034;2024-03-22T12:32:20;9.80;;;3.60;;
83814;SDS011;73829;53.826;-3.034;2024-03-22T12:34:51;10.60;;;3.40;;
83814;SDS011;73829;53.826;-3.034;2024-03-22T12:37:21;11.20;;;3.40;;
83814;SDS011;73829;53.826;-3.034;2024-03-22T12:39:52;10.80;;;3.60;;
83814;SDS011;73829;53.826;-3.034;2024-03-22T12:42:25;9.10;;;3.30;;
83814;SDS011;73829;53.826;-3.034;2024-03-22T12:44:59;10.00;;;3.80;;
83814;SDS011;73829;53.826;-3.034;2024-03-22T12:47:29;9.70;;;3.70;;
83814;SDS011;73829;53.826;-3.034;2024-03-22T12:49:59;13.10;;;4.50;;
83814;SDS011;73829;53.826;-3.034;2024-03-22T12:52:32;10.20;;;3.80;;
83814;SDS011;73829;53.826;-3.034;2024-03-22T12:55:03;11.20;;;3.30;;
83814;SDS011;73829;53.826;-3.034;2024-03-22T12:57:34;10.10;;;3.30;;
83814;SDS011;73829;53.826;-3.034;2024-03-22T13:00:07;11.70;;;3.70;;
83814;SDS011;73829;53.826;-3.034;2024-03-22T13:02:42;10.00;;;3.50;;
83814;SDS011;73829;53.826;-3.034;2024-03-22T13:05:13;10.60;;;3.60;;
83814;SDS011;73829;53.826;-3.034;2024-03-22T13:07:45;12.40;;;3.90;;
83814;SDS011;73829;53.826;-3.034;2024-03-22T13:10:16;9.10;;;3.50;;
83814;SDS011;73829;53.826;-3.034;2024-03-22T13:12:47;12.60;;;3.50;;
83814;SDS011;73829;53.826;-3.034;2024-03-22T13:15:19;8.00;;;3.10;;
83814;SDS011;73829;53.826;-3.034;2024-03-22T13:20:20;9.40;;;3.20;;
83814;SDS011;73829;53.826;-3.034;2024-03-22T13:25:19;9.40;;;3.00;;
83814;SDS011;73829;53.826;-3.034;2024-03-22T13:27:50;9.70;;;2.90;;
83814;SDS011;73829;53.826;-3.034;2024-03-22T13:30:23;9.00;;;2.60;;
83814;SDS011;73829;53.826;-3.034;2024-03-22T13:32:54;12.10;;;3.80;;
83814;SDS011;73829;53.826;-3.034;2024-03-22T13:35:25;8.70;;;2.70;;
83814;SDS011;73829;53.826;-3.034;2024-03-22T13:37:55;8.70;;;2.30;;
83814;SDS011;73829;53.826;-3.034;2024-03-22T13:40:27;11.10;;;3.10;;
83814;SDS011;73829;53.826;-3.034;2024-03-22T13:42:58;6.80;;;2.50;;
83814;SDS011;73829;53.826;-3.034;2024-03-22T13:45:29;8.80;;;2.60;;
83814;SDS011;73829;53.826;-3.034;2024-03-22T13:47:59;8.50;;;2.00;;
83814;SDS011;73829;53.826;-3.034;2024-03-22T13:50:39;7.40;;;2.30;;
83814;SDS011;73829;53.826;-3.034;2024-03-22T13:53:09;8.20;;;2.20;;
83814;SDS011;73829;53.826;-3.034;2024-03-22T13:55:39;7.20;;;2.20;;
83814;SDS011;73829;53.826;-3.034;2024-03-22T13:58:11;8.30;;;2.80;;
83814;SDS011;73829;53.826;-3.034;2024-03-22T14:00:42;6.70;;;1.90;;
83814;SDS011;73829;53.826;-3.034;2024-03-22T14:03:12;8.50;;;2.30;;
83814;SDS011;73829;53.826;-3.034;2024-03-22T14:05:44;5.90;;;2.30;;
83814;SDS011;73829;53.826;-3.034;2024-03-22T14:08:15;6.80;;;2.00;;
83814;SDS011;73829;53.826;-3.034;2024-03-22T14:10:45;6.00;;;1.80;;
83814;SDS011;73829;53.826;-3.034;2024-03-22T14:13:16;7.50;;;2.20;;
83814;SDS011;73829;53.826;-3.034;2024-03-22T14:15:46;8.90;;;2.10;;
83814;SDS011;73829;53.826;-3.034;2024-03-22T14:20:46;8.70;;;2.50;;
83814;SDS011;73829;53.826;-3.034;2024-03-22T14:23:16;7.70;;;2.00;;
83814;SDS011;73829;53.826;-3.034;2024-03-22T14:25:47;7.60;;;2.20;;
83814;SDS011;73829;53.826;-3.034;2024-03-22T14:28:18;6.50;;;1.90;;
83814;SDS011;73829;53.826;-3.034;2024-03-22T14:30:49;9.90;;;2.00;;
83814;SDS011;73829;53.826;-3.034;2024-03-22T14:33:19;6.10;;;1.70;;
83814;SDS011;73829;53.826;-3.034;2024-03-22T14:35:50;7.70;;;1.70;;
83814;SDS011;73829;53.826;-3.034;2024-03-22T14:38:20;4.80;;;1.50;;
83814;SDS011;73829;53.826;-3.034;2024-03-22T14:40:51;5.70;;;1.40;;
83814;SDS011;73829;53.826;-3.034;2024-03-22T14:43:21;8.60;;;2.00;;
83814;SDS011;73829;53.826;-3.034;2024-03-22T14:48:22;6.60;;;1.90;;
83814;SDS011;73829;53.826;-3.034;2024-03-22T14:50:53;7.30;;;1.70;;
83814;SDS011;73829;53.826;-3.034;2024-03-22T14:53:23;7.90;;;2.50;;
83814;SDS011;73829;53.826;-3.034;2024-03-22T14:55:55;6.70;;;1.80;;
83814;SDS011;73829;53.826;-3.034;2024-03-22T14:58:29;6.80;;;1.50;;
83814;SDS011;73829;53.826;-3.034;2024-03-22T15:01:00;7.50;;;1.70;;
83814;SDS011;73829;53.826;-3.034;2024-03-22T15:03:31;6.20;;;1.60;;
83814;SDS011;73829;53.826;-3.034;2024-03-22T15:06:02;7.70;;;1.70;;
83814;SDS011;73829;53.826;-3.034;2024-03-22T15:08:35;8.40;;;2.30;;
83814;SDS011;73829;53.826;-3.034;2024-03-22T15:11:05;7.40;;;1.60;;
83814;SDS011;73829;53.826;-3.034;2024-03-22T15:13:35;9.40;;;1.80;;
83814;SDS011;73829;53.826;-3.034;2024-03-22T15:16:06;7.80;;;1.70;;
83814;SDS011;73829;53.826;-3.034;2024-03-22T15:18:37;7.70;;;1.80;;
83814;SDS011;73829;53.826;-3.034;2024-03-22T15:21:09;6.20;;;1.90;;
83814;SDS011;73829;53.826;-3.034;2024-03-22T15:23:39;7.30;;;2.00;;
83814;SDS011;73829;53.826;-3.034;2024-03-22T15:28:39;5.30;;;1.20;;
83814;SDS011;73829;53.826;-3.034;2024-03-22T15:31:10;6.50;;;1.80;;
83814;SDS011;73829;53.826;-3.034;2024-03-22T15:33:41;6.00;;;1.40;;
83814;SDS011;73829;53.826;-3.034;2024-03-22T15:36:13;4.70;;;1.30;;
83814;SDS011;73829;53.826;-3.034;2024-03-22T15:38:43;8.30;;;1.80;;